Terminal Aerodrome Forecast
Issued by NWS

Home | Current Version | Previous Version | Text Only | Print | Product List | Glossary On
Versions: 1 2 3 4 5 6 7 8 9 10 11 12 13
000
FTUS41 KLWX 102300
TAFMTN
TAF
KMTN 102337Z 1100/1124 12008KT P6SM VCTS SCT030CB BKN150
     FM110200 VRB03KT P6SM SCT050
     FM111300 05007KT P6SM SCT050
      AMD NOT SKED 1102/1112=

USA.gov is the U.S. government's official web portal to all federal, state and local government web resources and services.